sensor_id;sensor_type;location;lat;lon;timestamp;P1;durP1;ratioP1;P2;durP2;ratioP2
12567;SDS011;6349;50.904;6.136;2023-09-18T00:00:20;7.35;;;4.05;;
12567;SDS011;6349;50.904;6.136;2023-09-18T00:02:21;4.78;;;3.75;;
12567;SDS011;6349;50.904;6.136;2023-09-18T00:04:22;6.20;;;4.10;;
12567;SDS011;6349;50.904;6.136;2023-09-18T00:06:22;3.75;;;3.40;;
12567;SDS011;6349;50.904;6.136;2023-09-18T00:08:25;7.18;;;4.40;;
12567;SDS011;6349;50.904;6.136;2023-09-18T00:10:26;6.05;;;3.80;;
12567;SDS011;6349;50.904;6.136;2023-09-18T00:12:26;5.55;;;4.13;;
12567;SDS011;6349;50.904;6.136;2023-09-18T00:14:27;8.18;;;4.30;;
12567;SDS011;6349;50.904;6.136;2023-09-18T00:16:28;5.93;;;3.80;;
12567;SDS011;6349;50.904;6.136;2023-09-18T00:18:28;5.85;;;3.90;;
12567;SDS011;6349;50.904;6.136;2023-09-18T00:20:29;6.38;;;3.97;;
12567;SDS011;6349;50.904;6.136;2023-09-18T00:22:29;5.72;;;3.80;;
12567;SDS011;6349;50.904;6.136;2023-09-18T00:24:31;7.57;;;4.10;;
12567;SDS011;6349;50.904;6.136;2023-09-18T00:26:32;6.80;;;4.07;;
12567;SDS011;6349;50.904;6.136;2023-09-18T00:28:32;8.60;;;4.40;;
12567;SDS011;6349;50.904;6.136;2023-09-18T00:30:33;7.35;;;3.67;;
12567;SDS011;6349;50.904;6.136;2023-09-18T00:32:33;7.75;;;4.53;;
12567;SDS011;6349;50.904;6.136;2023-09-18T00:34:34;6.55;;;3.85;;
12567;SDS011;6349;50.904;6.136;2023-09-18T00:36:34;6.88;;;4.13;;
12567;SDS011;6349;50.904;6.136;2023-09-18T00:38:35;8.88;;;4.07;;
12567;SDS011;6349;50.904;6.136;2023-09-18T00:40:36;5.53;;;3.72;;
12567;SDS011;6349;50.904;6.136;2023-09-18T00:42:36;4.38;;;3.85;;
12567;SDS011;6349;50.904;6.136;2023-09-18T00:44:37;5.07;;;3.78;;
12567;SDS011;6349;50.904;6.136;2023-09-18T00:46:37;3.80;;;3.50;;
12567;SDS011;6349;50.904;6.136;2023-09-18T00:48:38;5.07;;;4.05;;
12567;SDS011;6349;50.904;6.136;2023-09-18T00:50:39;6.35;;;4.15;;
12567;SDS011;6349;50.904;6.136;2023-09-18T00:52:40;5.32;;;4.07;;
12567;SDS011;6349;50.904;6.136;2023-09-18T00:54:42;5.90;;;3.92;;
12567;SDS011;6349;50.904;6.136;2023-09-18T00:56:44;4.25;;;3.85;;
12567;SDS011;6349;50.904;6.136;2023-09-18T00:58:48;6.55;;;4.05;;
12567;SDS011;6349;50.904;6.136;2023-09-18T01:00:49;4.97;;;3.47;;
12567;SDS011;6349;50.904;6.136;2023-09-18T01:02:52;3.97;;;3.35;;
12567;SDS011;6349;50.904;6.136;2023-09-18T01:04:53;6.25;;;3.95;;
12567;SDS011;6349;50.904;6.136;2023-09-18T01:06:53;4.88;;;3.75;;
12567;SDS011;6349;50.904;6.136;2023-09-18T01:08:56;4.18;;;3.67;;
12567;SDS011;6349;50.904;6.136;2023-09-18T01:11:04;4.97;;;4.05;;
12567;SDS011;6349;50.904;6.136;2023-09-18T01:13:38;5.78;;;3.60;;
12567;SDS011;6349;50.904;6.136;2023-09-18T01:15:51;4.45;;;3.70;;
12567;SDS011;6349;50.904;6.136;2023-09-18T01:17:54;5.05;;;3.60;;
12567;SDS011;6349;50.904;6.136;2023-09-18T01:19:55;6.53;;;3.38;;
12567;SDS011;6349;50.904;6.136;2023-09-18T01:21:55;5.78;;;4.18;;
12567;SDS011;6349;50.904;6.136;2023-09-18T01:23:56;4.18;;;3.60;;
12567;SDS011;6349;50.904;6.136;2023-09-18T01:25:57;7.82;;;3.70;;
12567;SDS011;6349;50.904;6.136;2023-09-18T01:27:57;6.88;;;4.03;;
12567;SDS011;6349;50.904;6.136;2023-09-18T01:29:58;8.43;;;4.20;;
12567;SDS011;6349;50.904;6.136;2023-09-18T01:31:58;7.60;;;4.50;;
12567;SDS011;6349;50.904;6.136;2023-09-18T01:33:59;6.88;;;4.20;;
12567;SDS011;6349;50.904;6.136;2023-09-18T01:36:00;6.55;;;3.80;;
12567;SDS011;6349;50.904;6.136;2023-09-18T01:38:02;5.65;;;3.80;;
12567;SDS011;6349;50.904;6.136;2023-09-18T01:40:04;7.28;;;4.60;;
12567;SDS011;6349;50.904;6.136;2023-09-18T01:42:06;7.68;;;4.80;;
12567;SDS011;6349;50.904;6.136;2023-09-18T01:44:09;9.15;;;4.70;;
12567;SDS011;6349;50.904;6.136;2023-09-18T01:46:10;6.68;;;4.72;;
12567;SDS011;6349;50.904;6.136;2023-09-18T01:48:11;6.25;;;4.70;;
12567;SDS011;6349;50.904;6.136;2023-09-18T01:50:11;5.88;;;4.80;;
12567;SDS011;6349;50.904;6.136;2023-09-18T01:52:13;4.90;;;4.40;;
12567;SDS011;6349;50.904;6.136;2023-09-18T01:54:13;6.68;;;4.28;;
12567;SDS011;6349;50.904;6.136;2023-09-18T01:56:14;7.75;;;4.78;;
12567;SDS011;6349;50.904;6.136;2023-09-18T01:58:14;6.00;;;4.65;;
12567;SDS011;6349;50.904;6.136;2023-09-18T02:00:15;7.85;;;5.00;;
12567;SDS011;6349;50.904;6.136;2023-09-18T02:02:16;5.63;;;4.28;;
12567;SDS011;6349;50.904;6.136;2023-09-18T02:04:17;5.57;;;4.32;;
12567;SDS011;6349;50.904;6.136;2023-09-18T02:06:18;6.85;;;4.82;;
12567;SDS011;6349;50.904;6.136;2023-09-18T02:08:18;10.18;;;5.07;;
12567;SDS011;6349;50.904;6.136;2023-09-18T02:10:19;8.75;;;5.68;;
12567;SDS011;6349;50.904;6.136;2023-09-18T02:12:19;8.90;;;6.15;;
12567;SDS011;6349;50.904;6.136;2023-09-18T02:14:20;11.65;;;5.72;;
12567;SDS011;6349;50.904;6.136;2023-09-18T02:16:20;10.23;;;6.35;;
12567;SDS011;6349;50.904;6.136;2023-09-18T02:18:24;13.13;;;6.80;;
12567;SDS011;6349;50.904;6.136;2023-09-18T02:20:24;12.25;;;6.88;;
12567;SDS011;6349;50.904;6.136;2023-09-18T02:22:25;10.88;;;4.65;;
12567;SDS011;6349;50.904;6.136;2023-09-18T02:24:25;7.22;;;4.07;;
12567;SDS011;6349;50.904;6.136;2023-09-18T02:26:26;7.30;;;3.83;;
12567;SDS011;6349;50.904;6.136;2023-09-18T02:28:26;6.72;;;3.35;;
12567;SDS011;6349;50.904;6.136;2023-09-18T02:30:27;7.13;;;3.17;;
12567;SDS011;6349;50.904;6.136;2023-09-18T02:32:28;7.18;;;3.30;;
12567;SDS011;6349;50.904;6.136;2023-09-18T02:34:29;4.53;;;3.25;;
12567;SDS011;6349;50.904;6.136;2023-09-18T02:36:30;6.15;;;3.03;;
12567;SDS011;6349;50.904;6.136;2023-09-18T02:38:31;6.25;;;3.10;;
12567;SDS011;6349;50.904;6.136;2023-09-18T02:40:32;5.43;;;3.03;;
12567;SDS011;6349;50.904;6.136;2023-09-18T02:42:33;7.72;;;2.95;;
12567;SDS011;6349;50.904;6.136;2023-09-18T02:44:33;7.10;;;3.10;;
12567;SDS011;6349;50.904;6.136;2023-09-18T02:46:36;7.50;;;3.10;;
12567;SDS011;6349;50.904;6.136;2023-09-18T02:48:37;5.75;;;2.83;;
12567;SDS011;6349;50.904;6.136;2023-09-18T02:50:38;8.27;;;3.47;;
12567;SDS011;6349;50.904;6.136;2023-09-18T02:52:39;6.28;;;2.80;;
12567;SDS011;6349;50.904;6.136;2023-09-18T02:54:39;12.18;;;3.08;;
12567;SDS011;6349;50.904;6.136;2023-09-18T02:56:40;8.05;;;3.03;;
12567;SDS011;6349;50.904;6.136;2023-09-18T02:58:40;8.38;;;3.35;;
12567;SDS011;6349;50.904;6.136;2023-09-18T03:00:42;8.85;;;3.30;;
12567;SDS011;6349;50.904;6.136;2023-09-18T03:02:43;9.93;;;3.33;;
12567;SDS011;6349;50.904;6.136;2023-09-18T03:04:44;9.23;;;3.30;;
12567;SDS011;6349;50.904;6.136;2023-09-18T03:06:44;7.25;;;3.65;;
12567;SDS011;6349;50.904;6.136;2023-09-18T03:08:45;9.45;;;3.83;;
12567;SDS011;6349;50.904;6.136;2023-09-18T03:10:45;8.55;;;3.30;;
12567;SDS011;6349;50.904;6.136;2023-09-18T03:12:49;7.72;;;3.53;;
12567;SDS011;6349;50.904;6.136;2023-09-18T03:14:49;7.47;;;3.10;;
12567;SDS011;6349;50.904;6.136;2023-09-18T03:16:50;6.80;;;3.10;;
12567;SDS011;6349;50.904;6.136;2023-09-18T03:18:50;6.22;;;2.90;;
12567;SDS011;6349;50.904;6.136;2023-09-18T03:20:51;7.93;;;3.00;;
12567;SDS011;6349;50.904;6.136;2023-09-18T03:22:52;8.77;;;2.88;;
12567;SDS011;6349;50.904;6.136;2023-09-18T03:24:56;7.68;;;2.72;;
12567;SDS011;6349;50.904;6.136;2023-09-18T03:26:57;5.28;;;2.70;;
12567;SDS011;6349;50.904;6.136;2023-09-18T03:28:57;5.13;;;2.17;;
12567;SDS011;6349;50.904;6.136;2023-09-18T03:30:58;4.57;;;2.40;;
12567;SDS011;6349;50.904;6.136;2023-09-18T03:32:59;3.90;;;2.05;;
12567;SDS011;6349;50.904;6.136;2023-09-18T03:34:59;3.95;;;2.30;;
12567;SDS011;6349;50.904;6.136;2023-09-18T03:37:00;7.40;;;2.10;;
12567;SDS011;6349;50.904;6.136;2023-09-18T03:39:00;3.15;;;2.15;;
12567;SDS011;6349;50.904;6.136;2023-09-18T03:41:01;6.30;;;2.45;;
12567;SDS011;6349;50.904;6.136;2023-09-18T03:43:02;3.97;;;2.20;;
12567;SDS011;6349;50.904;6.136;2023-09-18T03:45:02;4.10;;;2.20;;
12567;SDS011;6349;50.904;6.136;2023-09-18T03:47:05;5.72;;;2.30;;
12567;SDS011;6349;50.904;6.136;2023-09-18T03:49:06;5.78;;;2.15;;
12567;SDS011;6349;50.904;6.136;2023-09-18T03:51:06;4.05;;;2.05;;
12567;SDS011;6349;50.904;6.136;2023-09-18T03:53:08;3.72;;;1.90;;
12567;SDS011;6349;50.904;6.136;2023-09-18T03:55:09;4.40;;;2.40;;
12567;SDS011;6349;50.904;6.136;2023-09-18T03:57:10;3.58;;;2.10;;
12567;SDS011;6349;50.904;6.136;2023-09-18T03:59:11;4.60;;;1.67;;
12567;SDS011;6349;50.904;6.136;2023-09-18T04:01:11;3.28;;;2.10;;
12567;SDS011;6349;50.904;6.136;2023-09-18T04:03:12;5.22;;;2.17;;
12567;SDS011;6349;50.904;6.136;2023-09-18T04:05:13;2.75;;;2.10;;
12567;SDS011;6349;50.904;6.136;2023-09-18T04:07:13;6.18;;;1.80;;
12567;SDS011;6349;50.904;6.136;2023-09-18T04:09:16;4.75;;;2.00;;
12567;SDS011;6349;50.904;6.136;2023-09-18T04:11:18;2.50;;;1.63;;
12567;SDS011;6349;50.904;6.136;2023-09-18T04:13:25;4.38;;;2.03;;
12567;SDS011;6349;50.904;6.136;2023-09-18T04:15:25;3.97;;;1.90;;
12567;SDS011;6349;50.904;6.136;2023-09-18T04:17:27;3.88;;;1.60;;
12567;SDS011;6349;50.904;6.136;2023-09-18T04:19:28;4.93;;;1.85;;
12567;SDS011;6349;50.904;6.136;2023-09-18T04:21:29;2.92;;;1.60;;
12567;SDS011;6349;50.904;6.136;2023-09-18T04:23:30;3.22;;;1.73;;
12567;SDS011;6349;50.904;6.136;2023-09-18T04:25:30;4.05;;;1.88;;
12567;SDS011;6349;50.904;6.136;2023-09-18T04:27:32;4.07;;;2.03;;
12567;SDS011;6349;50.904;6.136;2023-09-18T04:29:32;4.20;;;1.90;;
12567;SDS011;6349;50.904;6.136;2023-09-18T04:31:33;4.47;;;1.90;;
12567;SDS011;6349;50.904;6.136;2023-09-18T04:33:33;4.13;;;1.70;;
12567;SDS011;6349;50.904;6.136;2023-09-18T04:35:34;3.50;;;1.90;;
12567;SDS011;6349;50.904;6.136;2023-09-18T04:37:35;3.45;;;1.70;;
12567;SDS011;6349;50.904;6.136;2023-09-18T04:39:38;4.80;;;1.67;;
12567;SDS011;6349;50.904;6.136;2023-09-18T04:41:39;1.58;;;1.48;;
12567;SDS011;6349;50.904;6.136;2023-09-18T04:43:40;1.70;;;1.38;;
12567;SDS011;6349;50.904;6.136;2023-09-18T04:45:43;5.00;;;1.92;;
12567;SDS011;6349;50.904;6.136;2023-09-18T04:47:44;2.80;;;1.58;;
12567;SDS011;6349;50.904;6.136;2023-09-18T04:49:45;4.47;;;1.65;;
12567;SDS011;6349;50.904;6.136;2023-09-18T04:51:47;5.07;;;1.60;;
12567;SDS011;6349;50.904;6.136;2023-09-18T04:53:48;2.83;;;1.65;;
12567;SDS011;6349;50.904;6.136;2023-09-18T04:55:48;2.17;;;1.55;;
12567;SDS011;6349;50.904;6.136;2023-09-18T04:57:52;3.25;;;1.45;;
12567;SDS011;6349;50.904;6.136;2023-09-18T04:59:53;3.67;;;1.42;;
12567;SDS011;6349;50.904;6.136;2023-09-18T05:01:53;2.53;;;1.30;;
12567;SDS011;6349;50.904;6.136;2023-09-18T05:03:54;2.97;;;1.50;;
12567;SDS011;6349;50.904;6.136;2023-09-18T05:05:54;3.88;;;1.45;;
12567;SDS011;6349;50.904;6.136;2023-09-18T05:07:55;3.92;;;1.75;;
12567;SDS011;6349;50.904;6.136;2023-09-18T05:09:56;2.92;;;1.42;;
12567;SDS011;6349;50.904;6.136;2023-09-18T05:11:56;3.67;;;1.90;;
12567;SDS011;6349;50.904;6.136;2023-09-18T05:13:58;4.20;;;1.50;;
12567;SDS011;6349;50.904;6.136;2023-09-18T05:15:58;3.78;;;1.70;;
12567;SDS011;6349;50.904;6.136;2023-09-18T05:18:00;2.10;;;1.50;;
12567;SDS011;6349;50.904;6.136;2023-09-18T05:20:01;1.60;;;1.30;;
12567;SDS011;6349;50.904;6.136;2023-09-18T05:22:04;2.10;;;1.40;;
12567;SDS011;6349;50.904;6.136;2023-09-18T05:24:05;2.33;;;1.60;;
12567;SDS011;6349;50.904;6.136;2023-09-18T05:26:05;3.42;;;1.65;;
12567;SDS011;6349;50.904;6.136;2023-09-18T05:28:06;2.65;;;1.77;;
12567;SDS011;6349;50.904;6.136;2023-09-18T05:30:07;4.10;;;1.73;;
12567;SDS011;6349;50.904;6.136;2023-09-18T05:32:08;3.42;;;1.75;;
12567;SDS011;6349;50.904;6.136;2023-09-18T05:34:09;3.10;;;1.70;;
12567;SDS011;6349;50.904;6.136;2023-09-18T05:36:09;2.90;;;1.95;;
12567;SDS011;6349;50.904;6.136;2023-09-18T05:38:10;4.90;;;1.80;;
12567;SDS011;6349;50.904;6.136;2023-09-18T05:40:13;3.25;;;1.60;;
12567;SDS011;6349;50.904;6.136;2023-09-18T05:42:14;4.00;;;1.50;;
12567;SDS011;6349;50.904;6.136;2023-09-18T05:44:14;3.72;;;1.70;;
12567;SDS011;6349;50.904;6.136;2023-09-18T05:46:15;4.65;;;1.70;;
12567;SDS011;6349;50.904;6.136;2023-09-18T05:48:15;2.85;;;1.75;;
12567;SDS011;6349;50.904;6.136;2023-09-18T05:50:16;2.63;;;1.52;;
12567;SDS011;6349;50.904;6.136;2023-09-18T05:52:16;2.38;;;1.70;;
12567;SDS011;6349;50.904;6.136;2023-09-18T05:54:17;2.97;;;1.83;;
12567;SDS011;6349;50.904;6.136;2023-09-18T05:56:18;4.20;;;1.73;;
12567;SDS011;6349;50.904;6.136;2023-09-18T05:58:18;2.05;;;1.55;;
12567;SDS011;6349;50.904;6.136;2023-09-18T06:00:24;2.83;;;1.50;;
12567;SDS011;6349;50.904;6.136;2023-09-18T06:02:25;3.25;;;1.63;;
12567;SDS011;6349;50.904;6.136;2023-09-18T06:04:26;2.88;;;1.55;;
12567;SDS011;6349;50.904;6.136;2023-09-18T06:06:27;3.88;;;1.70;;
12567;SDS011;6349;50.904;6.136;2023-09-18T06:08:28;2.90;;;1.83;;
12567;SDS011;6349;50.904;6.136;2023-09-18T06:10:29;2.38;;;1.42;;
12567;SDS011;6349;50.904;6.136;2023-09-18T06:12:29;5.72;;;1.85;;
12567;SDS011;6349;50.904;6.136;2023-09-18T06:14:30;3.00;;;1.63;;
12567;SDS011;6349;50.904;6.136;2023-09-18T06:16:31;3.03;;;1.60;;
12567;SDS011;6349;50.904;6.136;2023-09-18T06:18:32;4.25;;;1.50;;
12567;SDS011;6349;50.904;6.136;2023-09-18T06:20:33;2.15;;;1.20;;
12567;SDS011;6349;50.904;6.136;2023-09-18T06:22:33;3.50;;;1.45;;
12567;SDS011;6349;50.904;6.136;2023-09-18T06:24:34;3.38;;;1.60;;
12567;SDS011;6349;50.904;6.136;2023-09-18T06:26:35;4.53;;;1.52;;
12567;SDS011;6349;50.904;6.136;2023-09-18T06:28:36;2.30;;;1.50;;
12567;SDS011;6349;50.904;6.136;2023-09-18T06:30:37;2.50;;;1.40;;
12567;SDS011;6349;50.904;6.136;2023-09-18T06:32:37;2.65;;;1.60;;
12567;SDS011;6349;50.904;6.136;2023-09-18T06:34:38;3.20;;;1.35;;
12567;SDS011;6349;50.904;6.136;2023-09-18T06:36:42;2.45;;;1.40;;
12567;SDS011;6349;50.904;6.136;2023-09-18T06:38:43;3.22;;;1.50;;
12567;SDS011;6349;50.904;6.136;2023-09-18T06:40:44;2.75;;;1.40;;
12567;SDS011;6349;50.904;6.136;2023-09-18T06:42:44;4.40;;;1.60;;
12567;SDS011;6349;50.904;6.136;2023-09-18T06:44:45;2.88;;;1.65;;
12567;SDS011;6349;50.904;6.136;2023-09-18T06:46:45;1.95;;;1.50;;
12567;SDS011;6349;50.904;6.136;2023-09-18T06:48:46;2.35;;;1.25;;
12567;SDS011;6349;50.904;6.136;2023-09-18T06:50:48;2.90;;;1.50;;
12567;SDS011;6349;50.904;6.136;2023-09-18T06:52:48;1.90;;;1.08;;
12567;SDS011;6349;50.904;6.136;2023-09-18T06:54:49;2.47;;;1.30;;
12567;SDS011;6349;50.904;6.136;2023-09-18T06:56:50;2.60;;;1.40;;
12567;SDS011;6349;50.904;6.136;2023-09-18T06:58:51;2.63;;;1.50;;
12567;SDS011;6349;50.904;6.136;2023-09-18T07:00:51;3.95;;;1.55;;
12567;SDS011;6349;50.904;6.136;2023-09-18T07:02:52;2.95;;;1.60;;
12567;SDS011;6349;50.904;6.136;2023-09-18T07:04:52;2.90;;;1.50;;
12567;SDS011;6349;50.904;6.136;2023-09-18T07:06:53;2.40;;;1.60;;
12567;SDS011;6349;50.904;6.136;2023-09-18T07:08:54;4.35;;;1.63;;
12567;SDS011;6349;50.904;6.136;2023-09-18T07:10:54;2.10;;;1.50;;
12567;SDS011;6349;50.904;6.136;2023-09-18T07:12:55;2.78;;;1.40;;
12567;SDS011;6349;50.904;6.136;2023-09-18T07:14:55;2.97;;;1.40;;
12567;SDS011;6349;50.904;6.136;2023-09-18T07:16:56;2.75;;;1.48;;
12567;SDS011;6349;50.904;6.136;2023-09-18T07:18:57;3.47;;;1.50;;
12567;SDS011;6349;50.904;6.136;2023-09-18T07:20:57;3.38;;;1.52;;
12567;SDS011;6349;50.904;6.136;2023-09-18T07:22:58;3.22;;;1.40;;
12567;SDS011;6349;50.904;6.136;2023-09-18T07:24:58;2.33;;;1.23;;
12567;SDS011;6349;50.904;6.136;2023-09-18T07:26:59;1.48;;;1.20;;
12567;SDS011;6349;50.904;6.136;2023-09-18T07:29:00;1.75;;;1.30;;
12567;SDS011;6349;50.904;6.136;2023-09-18T07:31:08;4.13;;;1.73;;
12567;SDS011;6349;50.904;6.136;2023-09-18T07:33:10;2.13;;;1.45;;
12567;SDS011;6349;50.904;6.136;2023-09-18T07:35:11;2.47;;;1.40;;
12567;SDS011;6349;50.904;6.136;2023-09-18T07:37:13;2.35;;;1.50;;
12567;SDS011;6349;50.904;6.136;2023-09-18T07:39:15;5.05;;;1.65;;
12567;SDS011;6349;50.904;6.136;2023-09-18T07:41:16;5.25;;;1.50;;
12567;SDS011;6349;50.904;6.136;2023-09-18T07:43:17;2.80;;;1.48;;
12567;SDS011;6349;50.904;6.136;2023-09-18T07:45:17;3.63;;;1.40;;
12567;SDS011;6349;50.904;6.136;2023-09-18T07:47:18;2.03;;;1.20;;
12567;SDS011;6349;50.904;6.136;2023-09-18T07:49:19;2.08;;;1.48;;
12567;SDS011;6349;50.904;6.136;2023-09-18T07:51:19;2.53;;;1.60;;
12567;SDS011;6349;50.904;6.136;2023-09-18T07:53:20;4.07;;;1.48;;
12567;SDS011;6349;50.904;6.136;2023-09-18T07:55:21;2.47;;;1.50;;
12567;SDS011;6349;50.904;6.136;2023-09-18T07:57:21;1.48;;;1.38;;
12567;SDS011;6349;50.904;6.136;2023-09-18T07:59:23;1.95;;;1.55;;
12567;SDS011;6349;50.904;6.136;2023-09-18T08:01:25;3.83;;;1.30;;
12567;SDS011;6349;50.904;6.136;2023-09-18T08:03:26;2.97;;;1.42;;
12567;SDS011;6349;50.904;6.136;2023-09-18T08:05:27;2.85;;;1.42;;
12567;SDS011;6349;50.904;6.136;2023-09-18T08:07:28;2.03;;;1.63;;
12567;SDS011;6349;50.904;6.136;2023-09-18T08:09:29;3.33;;;1.35;;
12567;SDS011;6349;50.904;6.136;2023-09-18T08:11:29;2.88;;;1.50;;
12567;SDS011;6349;50.904;6.136;2023-09-18T08:13:30;4.30;;;1.58;;
12567;SDS011;6349;50.904;6.136;2023-09-18T08:15:30;2.00;;;1.10;;
12567;SDS011;6349;50.904;6.136;2023-09-18T08:17:31;2.65;;;1.30;;
12567;SDS011;6349;50.904;6.136;2023-09-18T08:19:31;2.88;;;1.42;;
12567;SDS011;6349;50.904;6.136;2023-09-18T08:21:32;1.70;;;1.25;;
12567;SDS011;6349;50.904;6.136;2023-09-18T08:23:33;3.17;;;1.27;;
12567;SDS011;6349;50.904;6.136;2023-09-18T08:25:34;1.40;;;1.30;;
12567;SDS011;6349;50.904;6.136;2023-09-18T08:27:34;2.80;;;1.52;;
12567;SDS011;6349;50.904;6.136;2023-09-18T08:29:37;2.20;;;1.40;;
12567;SDS011;6349;50.904;6.136;2023-09-18T08:31:38;2.42;;;1.40;;
12567;SDS011;6349;50.904;6.136;2023-09-18T08:33:38;1.80;;;1.40;;
12567;SDS011;6349;50.904;6.136;2023-09-18T08:35:39;3.95;;;1.60;;
12567;SDS011;6349;50.904;6.136;2023-09-18T08:37:40;2.90;;;1.30;;
12567;SDS011;6349;50.904;6.136;2023-09-18T08:39:41;3.10;;;1.55;;
12567;SDS011;6349;50.904;6.136;2023-09-18T08:41:43;2.10;;;1.30;;
12567;SDS011;6349;50.904;6.136;2023-09-18T08:43:45;1.85;;;1.30;;
12567;SDS011;6349;50.904;6.136;2023-09-18T08:45:51;2.90;;;1.30;;
12567;SDS011;6349;50.904;6.136;2023-09-18T08:47:53;2.30;;;1.25;;
12567;SDS011;6349;50.904;6.136;2023-09-18T08:49:55;2.70;;;1.40;;
12567;SDS011;6349;50.904;6.136;2023-09-18T08:51:57;3.60;;;1.38;;
12567;SDS011;6349;50.904;6.136;2023-09-18T08:54:00;2.40;;;1.40;;
12567;SDS011;6349;50.904;6.136;2023-09-18T08:56:04;2.40;;;1.35;;
12567;SDS011;6349;50.904;6.136;2023-09-18T08:58:06;3.00;;;1.50;;
12567;SDS011;6349;50.904;6.136;2023-09-18T09:00:10;2.38;;;1.60;;
12567;SDS011;6349;50.904;6.136;2023-09-18T09:02:16;1.67;;;1.40;;
12567;SDS011;6349;50.904;6.136;2023-09-18T09:04:17;1.40;;;1.30;;
12567;SDS011;6349;50.904;6.136;2023-09-18T09:06:18;2.00;;;1.42;;
12567;SDS011;6349;50.904;6.136;2023-09-18T09:08:18;2.40;;;1.55;;
12567;SDS011;6349;50.904;6.136;2023-09-18T09:10:19;2.47;;;1.80;;
12567;SDS011;6349;50.904;6.136;2023-09-18T09:15:03;2.88;;;1.42;;
12567;SDS011;6349;50.904;6.136;2023-09-18T09:17:04;2.00;;;1.60;;
12567;SDS011;6349;50.904;6.136;2023-09-18T09:19:06;3.38;;;1.70;;
12567;SDS011;6349;50.904;6.136;2023-09-18T09:21:07;4.35;;;1.85;;
12567;SDS011;6349;50.904;6.136;2023-09-18T09:23:08;3.28;;;1.73;;
12567;SDS011;6349;50.904;6.136;2023-09-18T09:25:25;5.95;;;1.63;;
12567;SDS011;6349;50.904;6.136;2023-09-18T09:27:28;2.42;;;1.67;;
12567;SDS011;6349;50.904;6.136;2023-09-18T09:29:28;2.13;;;1.73;;
12567;SDS011;6349;50.904;6.136;2023-09-18T09:31:29;3.80;;;1.55;;
12567;SDS011;6349;50.904;6.136;2023-09-18T09:33:31;3.53;;;1.60;;
12567;SDS011;6349;50.904;6.136;2023-09-18T09:35:33;3.60;;;1.70;;
12567;SDS011;6349;50.904;6.136;2023-09-18T09:37:34;3.67;;;1.70;;
12567;SDS011;6349;50.904;6.136;2023-09-18T09:39:45;2.05;;;1.60;;
12567;SDS011;6349;50.904;6.136;2023-09-18T09:41:48;3.75;;;1.40;;
12567;SDS011;6349;50.904;6.136;2023-09-18T09:43:50;2.35;;;1.45;;
12567;SDS011;6349;50.904;6.136;2023-09-18T09:45:56;2.92;;;1.67;;
12567;SDS011;6349;50.904;6.136;2023-09-18T09:47:58;2.75;;;1.70;;
12567;SDS011;6349;50.904;6.136;2023-09-18T09:50:05;2.85;;;1.65;;
12567;SDS011;6349;50.904;6.136;2023-09-18T09:52:17;2.67;;;1.50;;
12567;SDS011;6349;50.904;6.136;2023-09-18T09:54:31;2.00;;;1.80;;
12567;SDS011;6349;50.904;6.136;2023-09-18T09:58:42;2.55;;;1.55;;
12567;SDS011;6349;50.904;6.136;2023-09-18T10:02:46;1.48;;;1.38;;
12567;SDS011;6349;50.904;6.136;2023-09-18T10:04:46;1.58;;;1.40;;
12567;SDS011;6349;50.904;6.136;2023-09-18T10:06:53;2.17;;;1.48;;
12567;SDS011;6349;50.904;6.136;2023-09-18T10:09:06;2.67;;;1.70;;
12567;SDS011;6349;50.904;6.136;2023-09-18T10:11:08;3.28;;;1.98;;
12567;SDS011;6349;50.904;6.136;2023-09-18T10:13:17;5.32;;;1.63;;
12567;SDS011;6349;50.904;6.136;2023-09-18T10:15:20;3.30;;;1.77;;
12567;SDS011;6349;50.904;6.136;2023-09-18T10:17:23;2.10;;;1.70;;
12567;SDS011;6349;50.904;6.136;2023-09-18T10:19:28;5.57;;;1.98;;
12567;SDS011;6349;50.904;6.136;2023-09-18T10:21:38;3.13;;;1.90;;
12567;SDS011;6349;50.904;6.136;2023-09-18T10:23:56;1.83;;;1.60;;
12567;SDS011;6349;50.904;6.136;2023-09-18T10:26:14;2.45;;;1.60;;
12567;SDS011;6349;50.904;6.136;2023-09-18T10:28:23;2.60;;;1.63;;
12567;SDS011;6349;50.904;6.136;2023-09-18T10:30:26;4.10;;;1.95;;
12567;SDS011;6349;50.904;6.136;2023-09-18T10:32:29;1.63;;;1.40;;
12567;SDS011;6349;50.904;6.136;2023-09-18T10:34:29;3.10;;;1.88;;
12567;SDS011;6349;50.904;6.136;2023-09-18T10:36:34;3.45;;;1.90;;
12567;SDS011;6349;50.904;6.136;2023-09-18T10:38:36;2.83;;;1.80;;
12567;SDS011;6349;50.904;6.136;2023-09-18T10:40:39;4.60;;;1.60;;
12567;SDS011;6349;50.904;6.136;2023-09-18T10:42:41;3.85;;;1.80;;
12567;SDS011;6349;50.904;6.136;2023-09-18T10:44:42;2.53;;;1.80;;
12567;SDS011;6349;50.904;6.136;2023-09-18T10:46:44;3.15;;;1.83;;
12567;SDS011;6349;50.904;6.136;2023-09-18T10:48:55;1.55;;;1.45;;
12567;SDS011;6349;50.904;6.136;2023-09-18T10:50:56;2.67;;;1.63;;
12567;SDS011;6349;50.904;6.136;2023-09-18T10:52:58;2.35;;;1.85;;
12567;SDS011;6349;50.904;6.136;2023-09-18T10:55:00;3.92;;;1.45;;
12567;SDS011;6349;50.904;6.136;2023-09-18T10:57:03;3.85;;;1.80;;
12567;SDS011;6349;50.904;6.136;2023-09-18T10:59:06;2.95;;;1.85;;
12567;SDS011;6349;50.904;6.136;2023-09-18T11:01:07;2.35;;;1.80;;
12567;SDS011;6349;50.904;6.136;2023-09-18T11:03:15;2.88;;;1.88;;
12567;SDS011;6349;50.904;6.136;2023-09-18T11:06:01;3.17;;;1.90;;
12567;SDS011;6349;50.904;6.136;2023-09-18T11:07:45;3.88;;;1.75;;
12567;SDS011;6349;50.904;6.136;2023-09-18T11:09:46;2.17;;;1.60;;
12567;SDS011;6349;50.904;6.136;2023-09-18T11:11:52;2.58;;;1.83;;
12567;SDS011;6349;50.904;6.136;2023-09-18T11:13:56;3.33;;;2.00;;
12567;SDS011;6349;50.904;6.136;2023-09-18T11:16:13;4.38;;;1.65;;
12567;SDS011;6349;50.904;6.136;2023-09-18T11:18:31;2.97;;;1.85;;
12567;SDS011;6349;50.904;6.136;2023-09-18T11:20:32;2.95;;;1.50;;
12567;SDS011;6349;50.904;6.136;2023-09-18T11:22:33;2.22;;;1.70;;
12567;SDS011;6349;50.904;6.136;2023-09-18T11:24:36;2.20;;;1.52;;
12567;SDS011;6349;50.904;6.136;2023-09-18T11:26:39;2.08;;;1.70;;
12567;SDS011;6349;50.904;6.136;2023-09-18T11:28:41;1.80;;;1.70;;
12567;SDS011;6349;50.904;6.136;2023-09-18T11:30:53;4.05;;;1.88;;
12567;SDS011;6349;50.904;6.136;2023-09-18T11:33:03;5.15;;;1.98;;
12567;SDS011;6349;50.904;6.136;2023-09-18T11:35:07;1.85;;;1.50;;
12567;SDS011;6349;50.904;6.136;2023-09-18T11:37:21;4.10;;;1.60;;
12567;SDS011;6349;50.904;6.136;2023-09-18T11:39:38;2.47;;;1.70;;
12567;SDS011;6349;50.904;6.136;2023-09-18T11:41:39;3.17;;;1.63;;
12567;SDS011;6349;50.904;6.136;2023-09-18T11:43:40;2.05;;;1.63;;
12567;SDS011;6349;50.904;6.136;2023-09-18T11:45:41;1.67;;;1.50;;
12567;SDS011;6349;50.904;6.136;2023-09-18T11:47:42;2.20;;;1.70;;
12567;SDS011;6349;50.904;6.136;2023-09-18T11:49:50;4.35;;;1.67;;
12567;SDS011;6349;50.904;6.136;2023-09-18T11:51:57;2.88;;;1.60;;
12567;SDS011;6349;50.904;6.136;2023-09-18T11:53:58;2.25;;;1.65;;
12567;SDS011;6349;50.904;6.136;2023-09-18T11:56:02;2.08;;;1.60;;
12567;SDS011;6349;50.904;6.136;2023-09-18T11:58:03;1.90;;;1.50;;
12567;SDS011;6349;50.904;6.136;2023-09-18T12:00:05;2.63;;;1.70;;
12567;SDS011;6349;50.904;6.136;2023-09-18T12:02:29;2.05;;;1.60;;
12567;SDS011;6349;50.904;6.136;2023-09-18T12:04:35;3.30;;;1.63;;
12567;SDS011;6349;50.904;6.136;2023-09-18T12:06:36;3.30;;;1.85;;
12567;SDS011;6349;50.904;6.136;2023-09-18T12:08:39;2.63;;;1.70;;
12567;SDS011;6349;50.904;6.136;2023-09-18T12:10:40;3.75;;;1.65;;
12567;SDS011;6349;50.904;6.136;2023-09-18T12:12:41;1.60;;;1.50;;
12567;SDS011;6349;50.904;6.136;2023-09-18T12:14:43;2.10;;;1.90;;
12567;SDS011;6349;50.904;6.136;2023-09-18T12:16:44;2.53;;;1.63;;
12567;SDS011;6349;50.904;6.136;2023-09-18T12:18:48;3.10;;;1.73;;
12567;SDS011;6349;50.904;6.136;2023-09-18T12:20:49;2.10;;;1.83;;
12567;SDS011;6349;50.904;6.136;2023-09-18T12:22:50;3.05;;;1.70;;
12567;SDS011;6349;50.904;6.136;2023-09-18T12:24:51;5.18;;;1.80;;
12567;SDS011;6349;50.904;6.136;2023-09-18T12:26:52;2.47;;;1.50;;
12567;SDS011;6349;50.904;6.136;2023-09-18T12:28:53;5.35;;;1.58;;
12567;SDS011;6349;50.904;6.136;2023-09-18T12:30:55;2.17;;;1.67;;
12567;SDS011;6349;50.904;6.136;2023-09-18T12:32:57;1.90;;;1.58;;